Bartow, FL

5:27 PM EDT on May 24, 2015 (GMT -0400)
Sheffield Road | | Change Station
CLOSE
Current Station
Personal Weather Station
Location: Winter Haven, FL
Elevation: 138 ft
Nearby Weather Stations

Elev 138 ft 27.97 °N, 81.79 °W | Updated 1 minute ago

Mostly Cloudy
Mostly Cloudy
86.8 °F
Feels Like 93 °F
N
10.0
Wind Variable Wind from ENE
Gusts 16.0 mph

Today
High -- | Low -- °F
--% Chance of Precip.
Yesterday
High -- | Low -- °F
Precip. -- in
6:33 AM 8:14 PM
Waxing Crescent, 42% visible
Pressure 30.12 in
Visibility 10.0 miles
Clouds Mostly Cloudy 5000 ft
Heat Index 93 °F
Dew Point 71 °F
Humidity 61%
Rainfall 0.00 in
Snow Depth Not available.
UV 4 out of 12
Pollen 4.40 out of 12
Air Quality Not available.
Flu Activity Sporadic
METAR KBOW 242047Z 08015G25KT 10SM VCSH BKN050 32/19 A3012

More Conditions Fewer Conditions

Pressure 30.12 in
Visibility 10.0 miles
Clouds Mostly Cloudy 5000 ft
Heat Index 93 °F
Dew Point 71 °F
Humidity 61%
Rainfall 0.00 in
Snow Depth Not available.
UV 4 out of 12
Pollen 4.40 out of 12
Air Quality Not available.
Flu Activity Sporadic
METAR KBOW 242047Z 08015G25KT 10SM VCSH BKN050 32/19 A3012

More Conditions Fewer Conditions

10-Day Weather Forecast

Almanac

Astronomy

May. 24, 2015 Rise Set
Actual Time
Civil Twilight
Nautical Twilight
Astronomical Twilight
Moon
Length of Visible Light
Length of Day
Tomorrow will be .
, % of the Moon is Illuminated

Today's Extremes

State Highs State Lows

Community

WunderPhotos

Upload Photos

1,823,870 photos uploaded!

WunderBlogs® & News

Nearby

Air Quality

  Air Quality AQ Index Pollutant
Not available.

Snow Depth

Station Depth Elevation

Earthquake Activity

City Distance Mag. Time & Date
Minimum magnitude displayed is 2.5.

Coastal Water Temperatures

Place Temperature

Stations

Nearby Weather Stations

Station Location Temp. Windchill Dew Point Humidity Wind Precip. Elev Updated Type